Nearby METAR Reports

 

K8A0 - Albertville Muni, AL
Distance from station: SW 1mi, 2km
Updated: Sat, 03-Dec-2022 2:35am CST
Overcast
Overcast
 Wind from S
Wind: S 7 mph , 11 km/h, Gust: 16 mph , 26 km/h
Temperature: 59°F , 15°C
Dew Point: 52°F , 11°C
Humidity: 77%
Barometer: 30.25 inHg , 1024.4 hPa
Clouds: Overcast
Visibility: 10 miles , 16 km
Cloud details: Overcast 3100 ft
2022/12/03 08:35 K8A0 030835Z AUTO 19006G14KT 10SM OVC031 15/11 A3025 RMK AO2
KGAD - Gadsden Muni, AL
Distance from station: SSE 21mi, 35km
Updated: Sat, 03-Dec-2022 1:56am CST
Mostly cloudy
Mostly cloudy
 Wind from varies
Wind: varies 6 mph , 9 km/h
Temperature: 61°F , 16°C
Dew Point: 54°F , 12°C
Humidity: 77%
Barometer: 30.28 inHg , 1025.4 hPa
Clouds: Mostly cloudy
Visibility: 10 miles , 16 km
Cloud details: Few Clouds 5000 ft
Partly cloudy 6000 ft
Mostly cloudy 9000 ft
2022/12/03 07:56 KGAD 030756Z AUTO VRB05KT 10SM FEW050 SCT060 BKN090 16/12 A3028 RMK AO2 RAB29E39 SLP256 P0000 T01560117 $
 
K4A6 - Scottsboro, AL
Distance from station: NNE 33mi, 53km
Updated: Sat, 03-Dec-2022 2:35am CST
Light rain, Overcast
Light rain, Overcast
 Wind from WSW
Wind: WSW 9 mph , 15 km/h
Temperature: 61°F , 16°C
Dew Point: 54°F , 12°C
Humidity: 77%
Barometer: 30.28 inHg , 1025.4 hPa
Summary: Light rain
Clouds: Overcast
Visibility: 6 miles , 10 km
Cloud details: Few Clouds 2800 ft
Overcast 3700 ft
2022/12/03 08:35 K4A6 030835Z AUTO 25008KT 6SM -RA FEW028 OVC037 16/12 A3028 RMK AO2
K4A9 - Ft Payne, AL
Distance from station: ENE 33mi, 54km
Updated: Sat, 03-Dec-2022 2:35am CST
Overcast
Overcast
 Wind from S
Wind: S 5 mph , 7 km/h
Temperature: 57°F , 14°C
Dew Point: 50°F , 10°C
Humidity: 77%
Barometer: 30.27 inHg , 1025.1 hPa
Clouds: Overcast
Visibility: 10 miles , 16 km
Cloud details: Partly cloudy 4800 ft
Mostly cloudy 5000 ft
Overcast 8000 ft
2022/12/03 08:35 K4A9 030835Z AUTO 18004KT 10SM SCT048 BKN050 OVC080 14/10 A3027 RMK AO2 T01390098
 
KMDQ - Huntsville, AL
Distance from station: NNW 47mi, 75km
Updated: Sat, 03-Dec-2022 2:35am CST
Light rain, Overcast
Light rain, Overcast
 Wind from S
Wind: S 9 mph , 15 km/h
Temperature: 59°F , 15°C
Dew Point: 55°F , 13°C
Humidity: 88%
Barometer: 30.23 inHg , 1023.7 hPa
Summary: Light rain
Clouds: Overcast
Visibility: 10 miles , 16 km
Cloud details: Overcast 2900 ft
2022/12/03 08:35 KMDQ 030835Z AUTO 17008KT 10SM -RA OVC029 15/13 A3023 RMK A02 T01490130
KDCU - Decatur, AL
Distance from station: NW 49mi, 80km
Updated: Sat, 03-Dec-2022 2:16am CST
Light rain, Overcast
Light rain, Overcast
 Wind from S
Wind: S 10 mph , 17 km/h
Temperature: 59°F , 15°C
Dew Point: 55°F , 13°C
Humidity: 88%
Barometer: 30.23 inHg , 1023.7 hPa
Summary: Light rain
Clouds: Overcast
Visibility: 10 miles , 16 km
Cloud details: Mostly cloudy 2700 ft
Overcast 4400 ft
2022/12/03 08:16 KDCU 030816Z AUTO 18009KT 10SM -RA BKN027 OVC044 15/13 A3023 RMK AO2 P0000 T01500133
 
KGKT - Sevierville, TN
Distance from station: NE 235mi, 378km
Updated: Sat, 03-Dec-2022 2:35am CST
Overcast
Overcast
 Wind from calm
Wind: Calm
Temperature: 45°F , 7°C
Dew Point: 43°F , 6°C
Humidity: 93%
Barometer: 30.24 inHg , 1024 hPa
Clouds: Overcast
Visibility: 10 miles , 16 km
Cloud details: Few Clouds 4000 ft
Mostly cloudy 5500 ft
Overcast 6500 ft
2022/12/03 08:35 KGKT 030835Z AUTO 00000KT 10SM FEW040 BKN055 OVC065 07/06 A3024 RMK A01
KSSI - Jeckyll Island, GA
Distance from station: SE 467mi, 752km
Updated: Sat, 03-Dec-2022 1:53am CST
Few Clouds
Few Clouds
 Wind from calm
Wind: Calm
Temperature: 57°F , 14°C
Dew Point: 54°F , 12°C
Humidity: 88%
Barometer: 30.35 inHg , 1027.8 hPa
Clouds: Few Clouds
Visibility: 8 miles , 13 km
Cloud details: Few Clouds 5000 ft
2022/12/03 07:53 KSSI 030753Z AUTO 00000KT 8SM FEW050 14/12 A3035 RMK AO2 SLP278 T01440122
 
KECP - Panama City, FL
Distance from station: S 330mi, 531km
Updated: Sat, 03-Dec-2022 1:53am CST
Clear
Clear
 Wind from calm
Wind: Calm
Temperature: 52°F , 11°C
Dew Point: 48°F , 9°C
Humidity: 88%
Barometer: 30.30 inHg , 1026.1 hPa
Clouds: Clear
Visibility: 10 miles , 16 km
2022/12/03 07:53 KECP 030753Z AUTO 00000KT 10SM CLR 11/09 A3030 RMK AO1 SLP272 T01060094
KTPA - Tampa, FL,
Distance from station: S 600mi, 965km
Updated: Sat, 03-Dec-2022 1:53am CST
Mostly cloudy
Mostly cloudy
 Wind from NNE
Wind: NNE 5 mph , 7 km/h
Temperature: 64°F , 18°C
Dew Point: 61°F , 16°C
Humidity: 88%
Barometer: 30.29 inHg , 1025.7 hPa
Clouds: Mostly cloudy
Visibility: 10 miles , 16 km
Cloud details: Mostly cloudy 4600 ft
2022/12/03 07:53 KTPA 030753Z 02004KT 10SM BKN046 18/16 A3029 RMK AO2 SLP256 T01830156
 
KMTH - Marathon, FL,
Distance from station: S 915mi, 1473km
Updated: Sat, 03-Dec-2022 1:53am CST
Overcast
Overcast
 Wind from ENE
Wind: ENE 14 mph , 22 km/h, Gust: 23 mph , 37 km/h
Temperature: 79°F , 26°C
Dew Point: 66°F , 19°C
Humidity: 65%
Barometer: 30.16 inHg , 1021.3 hPa
Clouds: Overcast
Visibility: 10 miles , 16 km
Cloud details: Few Clouds 2800 ft
Mostly cloudy 4200 ft
Overcast 5000 ft
2022/12/03 07:53 KMTH 030753Z AUTO 07012G20KT 10SM FEW028 BKN042 OVC050 26/19 A3016 RMK AO2 SLP214 T02610189
KNYL - Yuma, AZ
Distance from station: W 3147mi, 5065km
Updated: Sat, 03-Dec-2022 1:57am CST
Clear
Clear
 Wind from NE
Wind: NE 3 mph , 6 km/h
Temperature: 55°F , 13°C
Dew Point: 39°F , 4°C
Humidity: 55%
Barometer: 30.10 inHg , 1019.3 hPa
Clouds: Clear
Visibility: 10 miles , 16 km
2022/12/03 07:57 KNYL 030757Z AUTO 04003KT 10SM CLR 13/04 A3010 RMK AO2 SLP190 T01330044 $
 
PABI - Ft. Greely, AK
Distance from station: NW 4300mi, 7167km
Updated: Sat, 03-Dec-2022 1:53am CST
Overcast
Overcast
 Wind from SSE
Wind: SSE 6 mph , 9 km/h
Temperature: 18°F , -8°C
Wind Chill: 10°F , -12°C
Dew Point: 14°F , -10°C
Humidity: 86%
Barometer: 30.20 inHg , 1022.7 hPa
Clouds: Overcast
Visibility: 10 miles , 16 km
Cloud details: Overcast 4900 ft
2022/12/03 07:53 PABI 030753Z AUTO 15005KT 10SM OVC049 M08/M10 A3020 RMK AO2 SLP271 T10781100 TSNO